CheckWX is a tool to help pilots better visualize weather data.  It is not intended as a substitute for an official pre-flight weather briefing.

03:14:17 UTC

KNZY METAR
North Island NAS / Halsey Field Airport
San Diego, California, USA
Current

22 mins ago

KNZY 260252Z 28007KT 10SM FEW039 FEW220 17/11 A2989 RMK AO2 SLP122 T01670106 53005 $
Observed
May-26 @ 02:52 UTC
Wind
  • 280° at 7 KTS
Visibility
10 SM
Flight Rules
VFR
Cloud Levels
  • Few at 3,900' AGL
  • Few at 22,000' AGL
Temperature
17°C / 63°F
Dewpoint
11°C / 52°F
Humidity
68%
Altimeter
29.89" Hg
Pressure
1012.22 hPa
Previous

1 hour ago

KNZY 260152Z 26008KT 10SM FEW039 17/10 A2988 RMK AO2 SLP117 T01720100 $
Observed
May-26 @ 01:52 UTC
Wind
  • 260° at 8 KTS
Visibility
10 SM
Flight Rules
VFR
Cloud Levels
  • Few at 3,900' AGL
Temperature
17°C / 63°F
Dewpoint
10°C / 50°F
Humidity
64%
Altimeter
29.88" Hg
Pressure
1011.82 hPa
Previous

2 hours ago

KNZY 260052Z 27008KT 10SM FEW039 18/10 A2987 RMK AO2 SLP116 T01780100 $
Observed
May-26 @ 00:52 UTC
Wind
  • 270° at 8 KTS
Visibility
10 SM
Flight Rules
VFR
Cloud Levels
  • Few at 3,900' AGL
Temperature
18°C / 64°F
Dewpoint
10°C / 50°F
Humidity
60%
Altimeter
29.87" Hg
Pressure
1011.52 hPa